This is the latest recevied weather packets stored in our database for station/object K5OLV. If no packets are shown the sender has not sent any weather packets the latest 10 day(s).
| Time | Temp. | Humidity | Pressure | Rain* | Wind** | Luminosity | Snow |
|---|---|---|---|---|---|---|---|
| 1777533822 | 12.78° C | 97% | 1010 hPa | 6.1 mm | - | 0 W/m² | - |
| 1777533519 | 12.78° C | 96% | 1010 hPa | 4.32 mm | - | 0 W/m² | - |
| 1777533214 | 12.78° C | 96% | 1010.1 hPa | 3.05 mm | - | 0 W/m² | - |
| 1777532912 | 12.78° C | 96% | 1010.1 hPa | 3.05 mm | - | 0 W/m² | - |
| 1777532609 | 12.78° C | 96% | 1010 hPa | 3.05 mm | - | 0 W/m² | - |
| 1777532305 | 12.78° C | 95% | 1010 hPa | 4.83 mm | - | 0 W/m² | - |
| 1777532001 | 12.78° C | 95% | 1010.1 hPa | 6.1 mm | - | 0 W/m² | - |
| 1777531698 | 13.33° C | 95% | 1010.1 hPa | 6.1 mm | - | 0 W/m² | - |
| 1777531394 | 13.33° C | 94% | 1010.3 hPa | 6.1 mm | - | 0 W/m² | - |
| 1777531092 | 13.33° C | 94% | 1010.6 hPa | 4.83 mm | - | 0 W/m² | - |
| 1777530789 | 13.33° C | 92% | 1011 hPa | 3.05 mm | - | 0 W/m² | - |
| 1777530488 | 13.89° C | 90% | 1010.8 hPa | 1.27 mm | - | 0 W/m² | - |
| 1777530183 | 13.89° C | 90% | 1010.5 hPa | 0 mm | - | 0 W/m² | - |
| 1777529881 | 13.89° C | 90% | 1010.5 hPa | 0 mm | - | 0 W/m² | - |
| 1777529576 | 14.44° C | 90% | 1010.1 hPa | 0 mm | - | 0 W/m² | - |
| 1777529274 | 13.89° C | 89% | 1010.5 hPa | 0 mm | - | 0 W/m² | - |
| 1777528970 | 14.44° C | 89% | 1010.3 hPa | 0 mm | - | 0 W/m² | - |
| 1777528665 | 14.44° C | 88% | 1010.1 hPa | 0 mm | - | 0 W/m² | - |
| 1777528364 | 14.44° C | 87% | 1010 hPa | 0 mm | - | 0 W/m² | - |
| 1777528061 | 15° C | 85% | 1009.7 hPa | 0 mm | - | 0 W/m² | - |
| 1777527757 | 14.44° C | 85% | 1009.5 hPa | 0 mm | - | 0 W/m² | - |
| 1777527448 | 15° C | 86% | 1009.3 hPa | 0 mm | - | 0 W/m² | - |
| 1777527148 | 15° C | 86% | 1009.4 hPa | 0 mm | - | 0 W/m² | - |
| 1777526845 | 15° C | 86% | 1009.4 hPa | 0 mm | - | 0 W/m² | - |
| 1777526539 | 15° C | 86% | 1009.7 hPa | 0 mm | - | 0 W/m² | - |
* Rain latest hour (hover to see other rain measurements)
** Current wind speed in m/s (hover to see current wind gust speed)